sensor_id;sensor_type;location;lat;lon;timestamp;temperature;humidity
41435;DHT22;27177;22.262;114.192;2022-10-16T00:01:33;24.90;95.60
41435;DHT22;27177;22.262;114.192;2022-10-16T00:04:01;24.90;95.30
41435;DHT22;27177;22.262;114.192;2022-10-16T00:06:28;24.90;95.30
41435;DHT22;27177;22.262;114.192;2022-10-16T00:08:56;24.90;95.50
41435;DHT22;27177;22.262;114.192;2022-10-16T00:11:32;24.90;95.00
41435;DHT22;27177;22.262;114.192;2022-10-16T00:14:08;24.90;95.30
41435;DHT22;27177;22.262;114.192;2022-10-16T00:16:36;25.00;95.10
41435;DHT22;27177;22.262;114.192;2022-10-16T00:19:03;25.00;95.10
41435;DHT22;27177;22.262;114.192;2022-10-16T00:21:31;25.00;95.10
41435;DHT22;27177;22.262;114.192;2022-10-16T00:24:00;25.00;95.20
41435;DHT22;27177;22.262;114.192;2022-10-16T00:26:29;25.00;95.00
41435;DHT22;27177;22.262;114.192;2022-10-16T00:28:57;25.00;94.90
41435;DHT22;27177;22.262;114.192;2022-10-16T00:31:24;25.00;94.70
41435;DHT22;27177;22.262;114.192;2022-10-16T00:33:51;25.00;94.60
41435;DHT22;27177;22.262;114.192;2022-10-16T00:36:20;25.00;95.00
41435;DHT22;27177;22.262;114.192;2022-10-16T00:38:50;25.10;94.60
41435;DHT22;27177;22.262;114.192;2022-10-16T00:41:19;25.10;94.60
41435;DHT22;27177;22.262;114.192;2022-10-16T00:43:55;25.10;94.50
41435;DHT22;27177;22.262;114.192;2022-10-16T00:46:40;25.10;94.70
41435;DHT22;27177;22.262;114.192;2022-10-16T00:49:13;25.10;94.60
41435;DHT22;27177;22.262;114.192;2022-10-16T00:51:46;25.20;94.50
41435;DHT22;27177;22.262;114.192;2022-10-16T00:54:17;25.30;94.70
41435;DHT22;27177;22.262;114.192;2022-10-16T00:56:47;25.30;94.60
41435;DHT22;27177;22.262;114.192;2022-10-16T00:59:21;25.30;94.60
41435;DHT22;27177;22.262;114.192;2022-10-16T01:01:51;25.30;94.90
41435;DHT22;27177;22.262;114.192;2022-10-16T01:04:18;25.30;94.80
41435;DHT22;27177;22.262;114.192;2022-10-16T01:12:48;25.40;94.60
41435;DHT22;27177;22.262;114.192;2022-10-16T01:20:51;25.60;94.40
41435;DHT22;27177;22.262;114.192;2022-10-16T01:28:49;25.80;94.30
41435;DHT22;27177;22.262;114.192;2022-10-16T01:31:19;25.80;94.30
41435;DHT22;27177;22.262;114.192;2022-10-16T01:34:02;25.90;94.10
41435;DHT22;27177;22.262;114.192;2022-10-16T01:36:37;25.90;93.80
41435;DHT22;27177;22.262;114.192;2022-10-16T01:39:06;26.00;93.50
41435;DHT22;27177;22.262;114.192;2022-10-16T01:41:49;26.00;93.40
41435;DHT22;27177;22.262;114.192;2022-10-16T01:44:30;26.00;93.60
41435;DHT22;27177;22.262;114.192;2022-10-16T01:47:00;26.10;93.90
41435;DHT22;27177;22.262;114.192;2022-10-16T01:49:34;26.20;93.50
41435;DHT22;27177;22.262;114.192;2022-10-16T01:52:06;26.30;93.30
41435;DHT22;27177;22.262;114.192;2022-10-16T01:54:36;26.30;93.30
41435;DHT22;27177;22.262;114.192;2022-10-16T01:57:06;26.30;93.70
41435;DHT22;27177;22.262;114.192;2022-10-16T01:59:38;26.30;93.50
41435;DHT22;27177;22.262;114.192;2022-10-16T02:02:09;26.40;93.60
41435;DHT22;27177;22.262;114.192;2022-10-16T02:04:42;26.40;93.40
41435;DHT22;27177;22.262;114.192;2022-10-16T02:07:10;26.30;93.70
41435;DHT22;27177;22.262;114.192;2022-10-16T02:09:38;26.30;93.70
41435;DHT22;27177;22.262;114.192;2022-10-16T02:12:31;26.40;93.80
41435;DHT22;27177;22.262;114.192;2022-10-16T02:14:59;26.50;93.90
41435;DHT22;27177;22.262;114.192;2022-10-16T02:17:26;26.50;93.70
41435;DHT22;27177;22.262;114.192;2022-10-16T02:19:54;26.50;93.90
41435;DHT22;27177;22.262;114.192;2022-10-16T02:22:26;26.50;93.90
41435;DHT22;27177;22.262;114.192;2022-10-16T02:25:19;26.50;94.00
41435;DHT22;27177;22.262;114.192;2022-10-16T02:28:08;26.50;94.00
41435;DHT22;27177;22.262;114.192;2022-10-16T02:30:47;26.50;94.10
41435;DHT22;27177;22.262;114.192;2022-10-16T02:33:16;26.60;94.20
41435;DHT22;27177;22.262;114.192;2022-10-16T02:35:47;26.60;94.10
41435;DHT22;27177;22.262;114.192;2022-10-16T02:38:15;26.50;94.60
41435;DHT22;27177;22.262;114.192;2022-10-16T02:40:42;26.60;94.70
41435;DHT22;27177;22.262;114.192;2022-10-16T02:43:10;26.60;94.50
41435;DHT22;27177;22.262;114.192;2022-10-16T02:45:37;26.60;94.50
41435;DHT22;27177;22.262;114.192;2022-10-16T02:48:04;26.60;94.50
41435;DHT22;27177;22.262;114.192;2022-10-16T02:50:31;26.60;94.80
41435;DHT22;27177;22.262;114.192;2022-10-16T02:52:58;26.70;94.70
41435;DHT22;27177;22.262;114.192;2022-10-16T02:55:24;26.70;95.10
41435;DHT22;27177;22.262;114.192;2022-10-16T02:57:52;26.70;94.90
41435;DHT22;27177;22.262;114.192;2022-10-16T03:00:18;26.80;95.00
41435;DHT22;27177;22.262;114.192;2022-10-16T03:02:45;26.80;95.00
41435;DHT22;27177;22.262;114.192;2022-10-16T03:05:13;26.90;95.00
41435;DHT22;27177;22.262;114.192;2022-10-16T03:07:40;27.00;94.90
41435;DHT22;27177;22.262;114.192;2022-10-16T03:10:07;27.10;94.90
41435;DHT22;27177;22.262;114.192;2022-10-16T03:12:34;27.00;94.90
41435;DHT22;27177;22.262;114.192;2022-10-16T03:15:01;27.10;94.90
41435;DHT22;27177;22.262;114.192;2022-10-16T03:17:27;27.20;95.00
41435;DHT22;27177;22.262;114.192;2022-10-16T03:19:54;27.30;95.00
41435;DHT22;27177;22.262;114.192;2022-10-16T03:22:21;27.50;95.10
41435;DHT22;27177;22.262;114.192;2022-10-16T03:24:48;27.60;95.00
41435;DHT22;27177;22.262;114.192;2022-10-16T03:27:15;27.60;94.60
41435;DHT22;27177;22.262;114.192;2022-10-16T03:29:42;27.60;94.90
41435;DHT22;27177;22.262;114.192;2022-10-16T03:32:08;27.70;94.30
41435;DHT22;27177;22.262;114.192;2022-10-16T03:34:35;27.70;94.70
41435;DHT22;27177;22.262;114.192;2022-10-16T03:37:02;27.80;94.80
41435;DHT22;27177;22.262;114.192;2022-10-16T03:39:29;27.80;94.40
41435;DHT22;27177;22.262;114.192;2022-10-16T03:41:56;27.80;94.40
41435;DHT22;27177;22.262;114.192;2022-10-16T03:44:22;27.90;94.50
41435;DHT22;27177;22.262;114.192;2022-10-16T03:46:49;27.90;94.40
41435;DHT22;27177;22.262;114.192;2022-10-16T03:49:16;27.90;94.30
41435;DHT22;27177;22.262;114.192;2022-10-16T03:51:43;28.00;94.60
41435;DHT22;27177;22.262;114.192;2022-10-16T03:54:11;28.10;94.80
41435;DHT22;27177;22.262;114.192;2022-10-16T03:56:38;28.20;94.40
41435;DHT22;27177;22.262;114.192;2022-10-16T03:59:05;28.40;94.80
41435;DHT22;27177;22.262;114.192;2022-10-16T04:01:32;28.40;94.30
41435;DHT22;27177;22.262;114.192;2022-10-16T04:03:59;28.60;94.10
41435;DHT22;27177;22.262;114.192;2022-10-16T04:06:26;28.70;94.10
41435;DHT22;27177;22.262;114.192;2022-10-16T04:08:53;28.70;94.00
41435;DHT22;27177;22.262;114.192;2022-10-16T04:11:20;28.70;94.20
41435;DHT22;27177;22.262;114.192;2022-10-16T04:13:47;28.50;94.40
41435;DHT22;27177;22.262;114.192;2022-10-16T04:16:14;28.40;94.60
41435;DHT22;27177;22.262;114.192;2022-10-16T04:18:41;28.40;94.80
41435;DHT22;27177;22.262;114.192;2022-10-16T04:21:08;28.20;95.00
41435;DHT22;27177;22.262;114.192;2022-10-16T04:23:35;28.30;95.10
41435;DHT22;27177;22.262;114.192;2022-10-16T04:26:02;28.30;95.10
41435;DHT22;27177;22.262;114.192;2022-10-16T04:28:30;28.20;95.00
41435;DHT22;27177;22.262;114.192;2022-10-16T04:30:56;28.10;95.20
41435;DHT22;27177;22.262;114.192;2022-10-16T04:33:23;28.10;95.30
41435;DHT22;27177;22.262;114.192;2022-10-16T04:35:57;28.00;95.30
41435;DHT22;27177;22.262;114.192;2022-10-16T04:38:24;28.10;95.40
41435;DHT22;27177;22.262;114.192;2022-10-16T04:40:51;28.00;95.40
41435;DHT22;27177;22.262;114.192;2022-10-16T04:43:17;28.00;95.30
41435;DHT22;27177;22.262;114.192;2022-10-16T04:45:44;28.10;95.50
41435;DHT22;27177;22.262;114.192;2022-10-16T04:48:11;28.10;95.50
41435;DHT22;27177;22.262;114.192;2022-10-16T04:50:38;28.20;95.10
41435;DHT22;27177;22.262;114.192;2022-10-16T04:53:05;28.00;95.00
41435;DHT22;27177;22.262;114.192;2022-10-16T04:55:32;28.20;95.10
41435;DHT22;27177;22.262;114.192;2022-10-16T04:57:59;28.30;95.30
41435;DHT22;27177;22.262;114.192;2022-10-16T05:00:26;28.40;95.10
41435;DHT22;27177;22.262;114.192;2022-10-16T05:02:52;28.40;95.50
41435;DHT22;27177;22.262;114.192;2022-10-16T05:05:19;28.50;95.40
41435;DHT22;27177;22.262;114.192;2022-10-16T05:07:47;28.40;95.20
41435;DHT22;27177;22.262;114.192;2022-10-16T05:10:14;28.40;95.10
41435;DHT22;27177;22.262;114.192;2022-10-16T05:12:40;28.20;95.50
41435;DHT22;27177;22.262;114.192;2022-10-16T05:15:09;28.20;95.40
41435;DHT22;27177;22.262;114.192;2022-10-16T05:17:36;28.20;95.30
41435;DHT22;27177;22.262;114.192;2022-10-16T05:20:03;28.20;95.40
41435;DHT22;27177;22.262;114.192;2022-10-16T05:22:30;28.20;95.20
41435;DHT22;27177;22.262;114.192;2022-10-16T05:24:57;28.30;95.40
41435;DHT22;27177;22.262;114.192;2022-10-16T05:27:23;28.40;95.10
41435;DHT22;27177;22.262;114.192;2022-10-16T05:29:50;28.40;95.40
41435;DHT22;27177;22.262;114.192;2022-10-16T05:32:17;28.40;95.00
41435;DHT22;27177;22.262;114.192;2022-10-16T05:34:45;28.40;95.00
41435;DHT22;27177;22.262;114.192;2022-10-16T05:37:12;28.50;95.10
41435;DHT22;27177;22.262;114.192;2022-10-16T05:39:39;28.50;95.50
41435;DHT22;27177;22.262;114.192;2022-10-16T05:42:06;28.70;95.20
41435;DHT22;27177;22.262;114.192;2022-10-16T05:44:33;28.70;95.10
41435;DHT22;27177;22.262;114.192;2022-10-16T05:47:00;28.80;95.40
41435;DHT22;27177;22.262;114.192;2022-10-16T05:49:26;28.80;95.10
41435;DHT22;27177;22.262;114.192;2022-10-16T05:51:53;29.00;95.30
41435;DHT22;27177;22.262;114.192;2022-10-16T05:54:20;29.10;94.80
41435;DHT22;27177;22.262;114.192;2022-10-16T05:56:46;29.10;94.30
41435;DHT22;27177;22.262;114.192;2022-10-16T05:59:13;29.00;94.60
41435;DHT22;27177;22.262;114.192;2022-10-16T06:01:40;29.00;94.70
41435;DHT22;27177;22.262;114.192;2022-10-16T06:04:07;29.20;94.80
41435;DHT22;27177;22.262;114.192;2022-10-16T06:06:34;29.20;94.30
41435;DHT22;27177;22.262;114.192;2022-10-16T06:09:03;29.20;94.80
41435;DHT22;27177;22.262;114.192;2022-10-16T06:11:31;29.30;94.70
41435;DHT22;27177;22.262;114.192;2022-10-16T06:14:01;29.40;94.50
41435;DHT22;27177;22.262;114.192;2022-10-16T06:16:37;29.40;94.00
41435;DHT22;27177;22.262;114.192;2022-10-16T06:19:04;29.40;94.10
41435;DHT22;27177;22.262;114.192;2022-10-16T06:21:35;29.30;94.00
41435;DHT22;27177;22.262;114.192;2022-10-16T06:24:01;29.20;94.60
41435;DHT22;27177;22.262;114.192;2022-10-16T06:26:30;29.20;94.50
41435;DHT22;27177;22.262;114.192;2022-10-16T06:28:58;29.10;94.30
41435;DHT22;27177;22.262;114.192;2022-10-16T06:31:25;29.00;94.60
41435;DHT22;27177;22.262;114.192;2022-10-16T06:33:57;29.00;94.40
41435;DHT22;27177;22.262;114.192;2022-10-16T06:36:25;28.90;94.60
41435;DHT22;27177;22.262;114.192;2022-10-16T06:38:52;28.90;95.00
41435;DHT22;27177;22.262;114.192;2022-10-16T06:41:21;28.80;94.50
41435;DHT22;27177;22.262;114.192;2022-10-16T06:43:48;28.60;94.80
41435;DHT22;27177;22.262;114.192;2022-10-16T06:46:17;28.50;94.80
41435;DHT22;27177;22.262;114.192;2022-10-16T06:48:44;28.50;94.90
41435;DHT22;27177;22.262;114.192;2022-10-16T06:51:16;28.50;94.90
41435;DHT22;27177;22.262;114.192;2022-10-16T06:53:45;28.50;95.10
41435;DHT22;27177;22.262;114.192;2022-10-16T06:56:26;28.40;95.20
41435;DHT22;27177;22.262;114.192;2022-10-16T06:58:53;28.40;95.50
41435;DHT22;27177;22.262;114.192;2022-10-16T07:01:22;28.50;95.40
41435;DHT22;27177;22.262;114.192;2022-10-16T07:03:49;28.40;95.10
41435;DHT22;27177;22.262;114.192;2022-10-16T07:06:20;28.50;95.50
41435;DHT22;27177;22.262;114.192;2022-10-16T07:08:47;28.60;95.30
41435;DHT22;27177;22.262;114.192;2022-10-16T07:11:19;28.60;95.20
41435;DHT22;27177;22.262;114.192;2022-10-16T07:13:47;28.60;95.10
41435;DHT22;27177;22.262;114.192;2022-10-16T07:16:20;28.70;95.20
41435;DHT22;27177;22.262;114.192;2022-10-16T07:18:47;28.60;95.50
41435;DHT22;27177;22.262;114.192;2022-10-16T07:21:17;28.50;95.40
41435;DHT22;27177;22.262;114.192;2022-10-16T07:23:45;28.50;95.50
41435;DHT22;27177;22.262;114.192;2022-10-16T07:26:16;28.50;95.70
41435;DHT22;27177;22.262;114.192;2022-10-16T07:28:43;28.50;95.50
41435;DHT22;27177;22.262;114.192;2022-10-16T07:31:12;28.50;95.90
41435;DHT22;27177;22.262;114.192;2022-10-16T07:33:40;28.60;95.90
41435;DHT22;27177;22.262;114.192;2022-10-16T07:36:12;28.60;95.90
41435;DHT22;27177;22.262;114.192;2022-10-16T07:38:39;28.60;95.70
41435;DHT22;27177;22.262;114.192;2022-10-16T07:41:07;28.60;95.70
41435;DHT22;27177;22.262;114.192;2022-10-16T07:43:35;28.60;95.90
41435;DHT22;27177;22.262;114.192;2022-10-16T07:46:02;28.70;96.10
41435;DHT22;27177;22.262;114.192;2022-10-16T07:48:31;28.70;96.10
41435;DHT22;27177;22.262;114.192;2022-10-16T07:51:05;28.70;95.90
41435;DHT22;27177;22.262;114.192;2022-10-16T07:53:33;28.70;96.00
41435;DHT22;27177;22.262;114.192;2022-10-16T07:56:02;28.60;95.80
41435;DHT22;27177;22.262;114.192;2022-10-16T07:58:29;28.60;95.90
41435;DHT22;27177;22.262;114.192;2022-10-16T08:00:56;28.60;96.00
41435;DHT22;27177;22.262;114.192;2022-10-16T08:03:24;28.50;96.00
41435;DHT22;27177;22.262;114.192;2022-10-16T08:05:51;28.50;96.20
41435;DHT22;27177;22.262;114.192;2022-10-16T08:08:19;28.50;96.20
41435;DHT22;27177;22.262;114.192;2022-10-16T08:10:46;28.50;96.30
41435;DHT22;27177;22.262;114.192;2022-10-16T08:13:13;28.60;96.40
41435;DHT22;27177;22.262;114.192;2022-10-16T08:15:42;28.60;96.50
41435;DHT22;27177;22.262;114.192;2022-10-16T08:18:11;28.60;96.30
41435;DHT22;27177;22.262;114.192;2022-10-16T08:20:40;28.60;96.50
41435;DHT22;27177;22.262;114.192;2022-10-16T08:23:09;28.60;96.60
41435;DHT22;27177;22.262;114.192;2022-10-16T08:25:37;28.60;96.80
41435;DHT22;27177;22.262;114.192;2022-10-16T08:28:09;28.60;96.60
41435;DHT22;27177;22.262;114.192;2022-10-16T08:30:36;28.70;96.60
41435;DHT22;27177;22.262;114.192;2022-10-16T08:33:03;28.70;96.70
41435;DHT22;27177;22.262;114.192;2022-10-16T08:35:32;28.70;96.60
41435;DHT22;27177;22.262;114.192;2022-10-16T08:37:59;28.70;96.70
41435;DHT22;27177;22.262;114.192;2022-10-16T08:40:28;28.70;96.40
41435;DHT22;27177;22.262;114.192;2022-10-16T08:50:49;28.60;96.90
41435;DHT22;27177;22.262;114.192;2022-10-16T08:56:06;28.60;97.00
41435;DHT22;27177;22.262;114.192;2022-10-16T08:58:33;28.60;97.00
41435;DHT22;27177;22.262;114.192;2022-10-16T09:01:03;28.60;97.20
41435;DHT22;27177;22.262;114.192;2022-10-16T09:20:43;28.50;97.50
41435;DHT22;27177;22.262;114.192;2022-10-16T09:23:19;28.50;97.50
41435;DHT22;27177;22.262;114.192;2022-10-16T09:25:50;28.50;97.40
41435;DHT22;27177;22.262;114.192;2022-10-16T09:28:18;28.50;97.40
41435;DHT22;27177;22.262;114.192;2022-10-16T09:30:45;28.50;97.50
41435;DHT22;27177;22.262;114.192;2022-10-16T09:33:15;28.50;97.60
41435;DHT22;27177;22.262;114.192;2022-10-16T09:36:03;28.50;97.60
41435;DHT22;27177;22.262;114.192;2022-10-16T09:38:33;28.50;97.50
41435;DHT22;27177;22.262;114.192;2022-10-16T09:41:19;28.50;97.60
41435;DHT22;27177;22.262;114.192;2022-10-16T09:44:00;28.40;97.70
41435;DHT22;27177;22.262;114.192;2022-10-16T09:46:32;28.40;97.50
41435;DHT22;27177;22.262;114.192;2022-10-16T09:49:05;28.40;97.80
41435;DHT22;27177;22.262;114.192;2022-10-16T09:51:36;28.40;97.30
41435;DHT22;27177;22.262;114.192;2022-10-16T09:56:35;28.40;97.60
41435;DHT22;27177;22.262;114.192;2022-10-16T09:59:20;28.40;97.60
41435;DHT22;27177;22.262;114.192;2022-10-16T10:01:56;28.40;97.70
41435;DHT22;27177;22.262;114.192;2022-10-16T10:04:58;28.30;97.70
41435;DHT22;27177;22.262;114.192;2022-10-16T10:07:27;28.30;97.60
41435;DHT22;27177;22.262;114.192;2022-10-16T10:09:56;28.30;97.60
41435;DHT22;27177;22.262;114.192;2022-10-16T10:12:28;28.40;97.60
41435;DHT22;27177;22.262;114.192;2022-10-16T10:15:11;28.40;97.60
41435;DHT22;27177;22.262;114.192;2022-10-16T10:17:55;28.40;97.50
41435;DHT22;27177;22.262;114.192;2022-10-16T10:20:25;28.40;97.40
41435;DHT22;27177;22.262;114.192;2022-10-16T10:22:54;28.40;97.50
41435;DHT22;27177;22.262;114.192;2022-10-16T10:25:39;28.40;97.40
41435;DHT22;27177;22.262;114.192;2022-10-16T10:30:54;28.40;97.30
41435;DHT22;27177;22.262;114.192;2022-10-16T10:33:41;28.50;97.40
41435;DHT22;27177;22.262;114.192;2022-10-16T10:46:55;28.50;97.10
41435;DHT22;27177;22.262;114.192;2022-10-16T10:52:41;28.40;97.10
41435;DHT22;27177;22.262;114.192;2022-10-16T11:06:30;28.40;97.10
41435;DHT22;27177;22.262;114.192;2022-10-16T11:15:04;28.40;97.00
41435;DHT22;27177;22.262;114.192;2022-10-16T11:17:41;28.40;97.10
41435;DHT22;27177;22.262;114.192;2022-10-16T11:20:24;28.40;96.90
41435;DHT22;27177;22.262;114.192;2022-10-16T11:22:56;28.40;97.00
41435;DHT22;27177;22.262;114.192;2022-10-16T11:25:31;28.40;97.00
41435;DHT22;27177;22.262;114.192;2022-10-16T11:31:32;28.40;97.10
41435;DHT22;27177;22.262;114.192;2022-10-16T11:34:21;28.40;97.20
41435;DHT22;27177;22.262;114.192;2022-10-16T11:39:38;28.40;97.00
41435;DHT22;27177;22.262;114.192;2022-10-16T11:42:10;28.30;97.10
41435;DHT22;27177;22.262;114.192;2022-10-16T11:47:35;28.40;96.90
41435;DHT22;27177;22.262;114.192;2022-10-16T11:50:31;28.40;97.00
41435;DHT22;27177;22.262;114.192;2022-10-16T11:55:59;28.40;96.90
41435;DHT22;27177;22.262;114.192;2022-10-16T11:58:41;28.40;97.00
41435;DHT22;27177;22.262;114.192;2022-10-16T12:01:47;28.30;96.60
41435;DHT22;27177;22.262;114.192;2022-10-16T12:07:09;28.40;96.60
41435;DHT22;27177;22.262;114.192;2022-10-16T12:09:41;28.40;96.40
41435;DHT22;27177;22.262;114.192;2022-10-16T12:12:40;28.40;96.60
41435;DHT22;27177;22.262;114.192;2022-10-16T12:15:28;28.40;96.60
41435;DHT22;27177;22.262;114.192;2022-10-16T12:17:56;28.40;96.80
41435;DHT22;27177;22.262;114.192;2022-10-16T12:20:32;28.40;96.60
41435;DHT22;27177;22.262;114.192;2022-10-16T12:23:04;28.30;96.70
41435;DHT22;27177;22.262;114.192;2022-10-16T12:25:39;28.30;96.80
41435;DHT22;27177;22.262;114.192;2022-10-16T12:28:18;28.40;96.60
41435;DHT22;27177;22.262;114.192;2022-10-16T12:31:06;28.30;96.50
41435;DHT22;27177;22.262;114.192;2022-10-16T12:33:41;28.30;96.70
41435;DHT22;27177;22.262;114.192;2022-10-16T12:36:26;28.30;96.70
41435;DHT22;27177;22.262;114.192;2022-10-16T12:38:55;28.30;96.60
41435;DHT22;27177;22.262;114.192;2022-10-16T12:41:31;28.30;96.70
41435;DHT22;27177;22.262;114.192;2022-10-16T12:43:59;28.20;96.70
41435;DHT22;27177;22.262;114.192;2022-10-16T12:51:42;28.20;96.70
41435;DHT22;27177;22.262;114.192;2022-10-16T12:54:19;28.20;96.80
41435;DHT22;27177;22.262;114.192;2022-10-16T12:56:51;28.20;96.70
41435;DHT22;27177;22.262;114.192;2022-10-16T13:02:40;28.10;96.80
41435;DHT22;27177;22.262;114.192;2022-10-16T13:08:35;28.20;96.80
41435;DHT22;27177;22.262;114.192;2022-10-16T13:19:29;28.00;97.00
41435;DHT22;27177;22.262;114.192;2022-10-16T13:22:05;28.00;97.10
41435;DHT22;27177;22.262;114.192;2022-10-16T13:29:54;27.90;97.30
41435;DHT22;27177;22.262;114.192;2022-10-16T13:32:27;27.80;97.30
41435;DHT22;27177;22.262;114.192;2022-10-16T13:34:56;27.80;97.30
41435;DHT22;27177;22.262;114.192;2022-10-16T13:37:24;27.80;97.40
41435;DHT22;27177;22.262;114.192;2022-10-16T13:40:19;27.80;97.50
41435;DHT22;27177;22.262;114.192;2022-10-16T13:42:46;27.70;97.40
41435;DHT22;27177;22.262;114.192;2022-10-16T13:45:24;27.70;97.50
41435;DHT22;27177;22.262;114.192;2022-10-16T13:48:11;27.60;97.70
41435;DHT22;27177;22.262;114.192;2022-10-16T13:50:38;27.50;97.60
41435;DHT22;27177;22.262;114.192;2022-10-16T13:53:06;27.40;97.50
41435;DHT22;27177;22.262;114.192;2022-10-16T13:55:34;27.40;97.50
41435;DHT22;27177;22.262;114.192;2022-10-16T13:58:14;27.30;97.60
41435;DHT22;27177;22.262;114.192;2022-10-16T14:01:35;27.30;97.50
41435;DHT22;27177;22.262;114.192;2022-10-16T14:03:43;27.30;97.50
41435;DHT22;27177;22.262;114.192;2022-10-16T14:06:19;27.30;97.70
41435;DHT22;27177;22.262;114.192;2022-10-16T14:09:08;27.30;97.70
41435;DHT22;27177;22.262;114.192;2022-10-16T14:11:44;27.30;97.60
41435;DHT22;27177;22.262;114.192;2022-10-16T14:14:13;27.20;97.40
41435;DHT22;27177;22.262;114.192;2022-10-16T14:16:42;27.20;97.30
41435;DHT22;27177;22.262;114.192;2022-10-16T14:21:46;27.20;97.40
41435;DHT22;27177;22.262;114.192;2022-10-16T14:24:35;27.20;97.30
41435;DHT22;27177;22.262;114.192;2022-10-16T14:27:02;27.20;97.40
41435;DHT22;27177;22.262;114.192;2022-10-16T14:29:30;27.20;97.30
41435;DHT22;27177;22.262;114.192;2022-10-16T14:32:06;27.20;97.30
41435;DHT22;27177;22.262;114.192;2022-10-16T14:34:37;27.20;97.20
41435;DHT22;27177;22.262;114.192;2022-10-16T14:37:25;27.20;97.20
41435;DHT22;27177;22.262;114.192;2022-10-16T14:39:54;27.20;97.10
41435;DHT22;27177;22.262;114.192;2022-10-16T14:42:23;27.10;97.10
41435;DHT22;27177;22.262;114.192;2022-10-16T14:44:52;27.10;97.20
41435;DHT22;27177;22.262;114.192;2022-10-16T14:47:22;27.10;96.80
41435;DHT22;27177;22.262;114.192;2022-10-16T14:49:55;27.10;96.70
41435;DHT22;27177;22.262;114.192;2022-10-16T14:52:24;27.10;96.70
41435;DHT22;27177;22.262;114.192;2022-10-16T14:54:52;27.10;96.60
41435;DHT22;27177;22.262;114.192;2022-10-16T14:57:23;27.10;96.70
41435;DHT22;27177;22.262;114.192;2022-10-16T14:59:50;27.10;96.50
41435;DHT22;27177;22.262;114.192;2022-10-16T15:02:36;27.10;96.40
41435;DHT22;27177;22.262;114.192;2022-10-16T15:05:20;27.10;96.10
41435;DHT22;27177;22.262;114.192;2022-10-16T15:07:48;27.10;96.20
41435;DHT22;27177;22.262;114.192;2022-10-16T15:10:20;27.10;96.30
41435;DHT22;27177;22.262;114.192;2022-10-16T15:12:48;27.10;96.30
41435;DHT22;27177;22.262;114.192;2022-10-16T15:17:55;27.00;95.80
41435;DHT22;27177;22.262;114.192;2022-10-16T15:20:26;27.00;95.60
41435;DHT22;27177;22.262;114.192;2022-10-16T15:22:54;27.00;95.80
41435;DHT22;27177;22.262;114.192;2022-10-16T15:28:09;27.00;95.40
41435;DHT22;27177;22.262;114.192;2022-10-16T15:30:37;27.00;95.40
41435;DHT22;27177;22.262;114.192;2022-10-16T15:33:08;27.00;95.30
41435;DHT22;27177;22.262;114.192;2022-10-16T15:35:36;27.00;95.30
41435;DHT22;27177;22.262;114.192;2022-10-16T15:38:03;27.00;94.90
41435;DHT22;27177;22.262;114.192;2022-10-16T15:40:30;27.00;95.00
41435;DHT22;27177;22.262;114.192;2022-10-16T15:42:57;26.90;94.90
41435;DHT22;27177;22.262;114.192;2022-10-16T15:45:24;26.90;94.80
41435;DHT22;27177;22.262;114.192;2022-10-16T15:47:51;26.90;94.80
41435;DHT22;27177;22.262;114.192;2022-10-16T15:50:20;26.90;94.90
41435;DHT22;27177;22.262;114.192;2022-10-16T15:52:47;26.90;94.80
41435;DHT22;27177;22.262;114.192;2022-10-16T15:55:14;26.90;94.60
41435;DHT22;27177;22.262;114.192;2022-10-16T15:57:41;26.90;94.50
41435;DHT22;27177;22.262;114.192;2022-10-16T16:00:17;26.80;94.50
41435;DHT22;27177;22.262;114.192;2022-10-16T16:02:51;26.80;94.50
41435;DHT22;27177;22.262;114.192;2022-10-16T16:05:19;26.80;94.30
41435;DHT22;27177;22.262;114.192;2022-10-16T16:07:49;26.80;94.30
41435;DHT22;27177;22.262;114.192;2022-10-16T16:10:17;26.80;94.40
41435;DHT22;27177;22.262;114.192;2022-10-16T16:12:46;26.80;94.30
41435;DHT22;27177;22.262;114.192;2022-10-16T16:15:19;26.80;94.20
41435;DHT22;27177;22.262;114.192;2022-10-16T16:17:46;26.80;94.10
41435;DHT22;27177;22.262;114.192;2022-10-16T16:20:13;26.80;94.20
41435;DHT22;27177;22.262;114.192;2022-10-16T16:22:41;26.80;94.30
41435;DHT22;27177;22.262;114.192;2022-10-16T16:25:08;26.70;94.20
41435;DHT22;27177;22.262;114.192;2022-10-16T16:27:36;26.80;94.00
41435;DHT22;27177;22.262;114.192;2022-10-16T16:30:06;26.80;94.00
41435;DHT22;27177;22.262;114.192;2022-10-16T16:32:34;26.80;94.00
41435;DHT22;27177;22.262;114.192;2022-10-16T16:35:02;26.80;94.00
41435;DHT22;27177;22.262;114.192;2022-10-16T16:37:30;26.70;94.20
41435;DHT22;27177;22.262;114.192;2022-10-16T16:39:57;26.70;94.00
41435;DHT22;27177;22.262;114.192;2022-10-16T16:42:28;26.70;94.00
41435;DHT22;27177;22.262;114.192;2022-10-16T16:44:55;26.60;94.00
41435;DHT22;27177;22.262;114.192;2022-10-16T16:47:22;26.70;93.80
41435;DHT22;27177;22.262;114.192;2022-10-16T16:49:49;26.70;93.90
41435;DHT22;27177;22.262;114.192;2022-10-16T16:52:16;26.70;93.90
41435;DHT22;27177;22.262;114.192;2022-10-16T16:54:43;26.70;93.80
41435;DHT22;27177;22.262;114.192;2022-10-16T16:57:21;26.70;93.70
41435;DHT22;27177;22.262;114.192;2022-10-16T16:59:50;26.70;93.70
41435;DHT22;27177;22.262;114.192;2022-10-16T17:02:18;26.60;93.80
41435;DHT22;27177;22.262;114.192;2022-10-16T17:04:45;26.60;93.60
41435;DHT22;27177;22.262;114.192;2022-10-16T17:07:12;26.60;93.60
41435;DHT22;27177;22.262;114.192;2022-10-16T17:09:39;26.60;93.70
41435;DHT22;27177;22.262;114.192;2022-10-16T17:12:06;26.60;93.60
41435;DHT22;27177;22.262;114.192;2022-10-16T17:14:33;26.60;93.80
41435;DHT22;27177;22.262;114.192;2022-10-16T17:17:00;26.60;93.80
41435;DHT22;27177;22.262;114.192;2022-10-16T17:19:27;26.50;93.70
41435;DHT22;27177;22.262;114.192;2022-10-16T17:21:54;26.60;93.90
41435;DHT22;27177;22.262;114.192;2022-10-16T17:24:21;26.60;93.80
41435;DHT22;27177;22.262;114.192;2022-10-16T17:26:49;26.60;93.80
41435;DHT22;27177;22.262;114.192;2022-10-16T17:29:17;26.60;93.80
41435;DHT22;27177;22.262;114.192;2022-10-16T17:31:45;26.50;93.90
41435;DHT22;27177;22.262;114.192;2022-10-16T17:34:15;26.50;93.80